Time;durP1;ratioP1;P1;durP2;ratioP2;P2;SDS_P1;SDS_P2;PMS_P1;PMS_P2;Temp;Humidity;BMP_temperature;BMP_pressure;BME280_temperature;BME280_humidity;BME280_pressure;Samples;Min_cycle;Max_cycle;Signal;HPM_P1;HPM_P2
2022/01/11 00:00:49;;;;;;;32.42;17.38;;;;;;;;;;5087451;28;20445;-67
2022/01/11 00:03:15;;;;;;;37.90;18.75;;;;;;;;;;5089999;28;20027;-67
2022/01/11 00:05:54;;;;;;;35.25;18.20;;;;;;;;;;5087869;28;20024;-67
2022/01/11 00:08:29;;;;;;;33.85;16.70;;;;;;;;;;5088784;28;20057;-68
2022/01/11 00:11:02;;;;;;;37.45;18.33;;;;;;;;;;5088595;28;20039;-68
2022/01/11 00:13:27;;;;;;;32.75;17.52;;;;;;;;;;5090233;28;20386;-68
2022/01/11 00:15:53;;;;;;;35.47;17.73;;;;;;;;;;5070685;28;20031;-68
2022/01/11 00:18:18;;;;;;;36.33;18.58;;;;;;;;;;5088564;28;20375;-68
2022/01/11 00:20:43;;;;;;;34.40;17.67;;;;;;;;;;5089539;28;20097;-68
2022/01/11 00:25:39;;;;;;;28.42;17.15;;;;;;;;;;5089093;28;20040;-68
2022/01/11 00:28:05;;;;;;;31.10;16.25;;;;;;;;;;5088134;28;20489;-67
2022/01/11 00:30:33;;;;;;;35.53;18.33;;;;;;;;;;5088690;28;20107;-67
2022/01/11 00:33:01;;;;;;;36.55;18.15;;;;;;;;;;5088130;28;20563;-68
2022/01/11 00:35:39;;;;;;;38.28;17.33;;;;;;;;;;5088747;28;20215;-68
2022/01/11 00:38:06;;;;;;;31.48;16.90;;;;;;;;;;5088124;28;20482;-68
2022/01/11 00:40:31;;;;;;;42.25;19.38;;;;;;;;;;5087941;28;20032;-68
2022/01/11 00:42:59;;;;;;;34.47;16.92;;;;;;;;;;5089144;28;20118;-68
2022/01/11 00:45:25;;;;;;;35.60;18.00;;;;;;;;;;5088447;28;20426;-68
2022/01/11 00:47:51;;;;;;;38.60;18.45;;;;;;;;;;5089252;28;20032;-67
2022/01/11 00:50:17;;;;;;;36.15;18.45;;;;;;;;;;5087762;28;20059;-68
2022/01/11 00:52:43;;;;;;;37.50;18.50;;;;;;;;;;5089230;28;20136;-68
2022/01/11 00:55:08;;;;;;;40.13;19.08;;;;;;;;;;5088052;28;20077;-67
2022/01/11 00:57:34;;;;;;;37.55;17.10;;;;;;;;;;5087987;28;20096;-68
2022/01/11 00:59:59;;;;;;;40.72;18.33;;;;;;;;;;5089143;28;20079;-68
2022/01/11 01:02:24;;;;;;;41.53;19.25;;;;;;;;;;5086664;28;20454;-68
2022/01/11 01:04:50;;;;;;;39.90;19.33;;;;;;;;;;5088740;28;20076;-68
2022/01/11 01:07:15;;;;;;;42.92;18.67;;;;;;;;;;5088211;28;20020;-68
2022/01/11 01:09:56;;;;;;;37.13;17.50;;;;;;;;;;5088985;28;20058;-68
2022/01/11 01:12:21;;;;;;;39.90;18.70;;;;;;;;;;5072126;28;20028;-68
2022/01/11 01:14:46;;;;;;;44.72;17.77;;;;;;;;;;5070611;28;20047;-67
2022/01/11 01:17:12;;;;;;;49.53;19.95;;;;;;;;;;5087915;28;20419;-67
2022/01/11 01:19:37;;;;;;;49.10;18.52;;;;;;;;;;5088584;28;20229;-67
2022/01/11 01:22:02;;;;;;;38.47;17.75;;;;;;;;;;5069197;28;20119;-68
2022/01/11 01:24:28;;;;;;;46.58;18.88;;;;;;;;;;5068421;28;20064;-67
2022/01/11 01:26:53;;;;;;;50.88;18.45;;;;;;;;;;5082949;28;20031;-68
2022/01/11 01:29:18;;;;;;;48.38;18.17;;;;;;;;;;5067028;28;20024;-68
2022/01/11 01:31:44;;;;;;;48.05;18.40;;;;;;;;;;5067496;28;20032;-67
2022/01/11 01:34:09;;;;;;;47.85;19.95;;;;;;;;;;5068429;28;20040;-68
2022/01/11 01:36:34;;;;;;;57.17;20.25;;;;;;;;;;5068068;28;20321;-68
2022/01/11 01:39:00;;;;;;;49.30;18.75;;;;;;;;;;5068001;28;20031;-68
2022/01/11 01:41:25;;;;;;;48.92;19.58;;;;;;;;;;5068039;28;20025;-68
2022/01/11 01:43:53;;;;;;;40.42;18.20;;;;;;;;;;5068457;28;20062;-68
2022/01/11 01:46:19;;;;;;;37.47;17.25;;;;;;;;;;5068128;28;20038;-68
2022/01/11 01:48:45;;;;;;;56.42;19.08;;;;;;;;;;5067484;28;20336;-68
2022/01/11 01:51:11;;;;;;;46.42;18.98;;;;;;;;;;5068254;28;20074;-68
2022/01/11 01:53:38;;;;;;;52.88;19.48;;;;;;;;;;5066856;28;20032;-68
2022/01/11 01:56:04;;;;;;;47.08;20.08;;;;;;;;;;5068123;28;20422;-67
2022/01/11 01:58:29;;;;;;;52.35;20.67;;;;;;;;;;5065748;28;20024;-68
2022/01/11 02:01:02;;;;;;;48.90;19.92;;;;;;;;;;5049029;28;20064;-68
2022/01/11 02:03:29;;;;;;;68.72;22.70;;;;;;;;;;5051119;28;20032;-67
2022/01/11 02:05:54;;;;;;;43.78;18.83;;;;;;;;;;5066663;28;20029;-68
2022/01/11 02:08:20;;;;;;;59.03;20.92;;;;;;;;;;5065871;28;20017;-67
2022/01/11 02:10:45;;;;;;;52.22;19.85;;;;;;;;;;5049977;28;20174;-67
2022/01/11 02:13:11;;;;;;;57.65;21.42;;;;;;;;;;5067787;28;20035;-68
2022/01/11 02:15:36;;;;;;;56.38;21.33;;;;;;;;;;5068080;28;20119;-68
2022/01/11 02:18:21;;;;;;;45.88;20.38;;;;;;;;;;5066156;28;20017;-68
2022/01/11 02:20:46;;;;;;;;;;;;;;;;;;5067059;28;20042;-67
2022/01/11 02:23:15;;;;;;;54.25;19.50;;;;;;;;;;5067716;28;19909;-67
2022/01/11 02:25:40;;;;;;;47.92;20.00;;;;;;;;;;5054040;28;20033;-68
2022/01/11 02:28:06;;;;;;;47.80;21.13;;;;;;;;;;5069818;28;20020;-67
2022/01/11 02:30:33;;;;;;;39.97;17.30;;;;;;;;;;5068746;28;20024;-68
2022/01/11 02:32:59;;;;;;;44.92;18.33;;;;;;;;;;5087145;28;20601;-67
2022/01/11 02:35:24;;;;;;;39.10;16.95;;;;;;;;;;5071272;28;20100;-68
2022/01/11 02:37:49;;;;;;;35.40;17.20;;;;;;;;;;5071026;28;20027;-68
2022/01/11 02:40:15;;;;;;;34.63;16.85;;;;;;;;;;5070609;28;20025;-68
2022/01/11 02:42:40;;;;;;;30.77;16.02;;;;;;;;;;5071173;28;20035;-67
2022/01/11 02:45:12;;;;;;;29.20;15.65;;;;;;;;;;5071275;28;20043;-67
2022/01/11 02:47:38;;;;;;;32.38;16.40;;;;;;;;;;5071071;28;20077;-68
2022/01/11 02:50:03;;;;;;;34.63;17.45;;;;;;;;;;5070543;28;20471;-67
2022/01/11 02:52:29;;;;;;;37.97;16.27;;;;;;;;;;5069836;28;20036;-67
2022/01/11 02:54:54;;;;;;;32.38;16.25;;;;;;;;;;5069755;28;20125;-68
2022/01/11 02:57:20;;;;;;;32.67;15.57;;;;;;;;;;5071014;28;20028;-67
2022/01/11 02:59:45;;;;;;;36.47;16.38;;;;;;;;;;5068699;28;20028;-68
2022/01/11 03:02:10;;;;;;;34.53;16.77;;;;;;;;;;5070085;28;20063;-68
2022/01/11 03:04:36;;;;;;;37.00;16.95;;;;;;;;;;5071002;28;20079;-67
2022/01/11 03:07:01;;;;;;;32.67;16.48;;;;;;;;;;5070976;28;20087;-68
2022/01/11 03:09:31;;;;;;;31.13;17.05;;;;;;;;;;5069446;28;20020;-68
2022/01/11 03:11:57;;;;;;;37.30;16.40;;;;;;;;;;5070305;28;20024;-68
2022/01/11 03:14:22;;;;;;;35.40;17.42;;;;;;;;;;5070632;28;20107;-68
2022/01/11 03:16:47;;;;;;;30.90;15.32;;;;;;;;;;5070732;28;20120;-68
2022/01/11 03:19:13;;;;;;;32.92;16.50;;;;;;;;;;5070405;28;20108;-68
2022/01/11 03:21:38;;;;;;;45.47;18.20;;;;;;;;;;5069107;28;20115;-67
2022/01/11 03:24:04;;;;;;;39.22;17.92;;;;;;;;;;5070584;28;20131;-68
2022/01/11 03:26:29;;;;;;;30.75;15.98;;;;;;;;;;5070837;28;20614;-68
2022/01/11 03:28:54;;;;;;;38.53;16.85;;;;;;;;;;5068861;28;20024;-68
2022/01/11 03:31:22;;;;;;;34.30;16.65;;;;;;;;;;5069148;28;20078;-68
2022/01/11 03:33:48;;;;;;;39.40;17.40;;;;;;;;;;5052952;28;20032;-68
2022/01/11 03:36:13;;;;;;;35.00;17.05;;;;;;;;;;5069563;28;20020;-68
2022/01/11 03:38:39;;;;;;;40.35;16.85;;;;;;;;;;5064190;28;20482;-70
2022/01/11 03:41:04;;;;;;;45.55;18.02;;;;;;;;;;5062222;28;20029;-70
2022/01/11 03:43:29;;;;;;;37.75;17.70;;;;;;;;;;5058495;28;20025;-70
2022/01/11 03:45:55;;;;;;;37.72;17.25;;;;;;;;;;5061462;28;20044;-70
2022/01/11 03:48:20;;;;;;;38.53;17.50;;;;;;;;;;5057801;28;20047;-70
2022/01/11 03:50:51;;;;;;;37.63;17.00;;;;;;;;;;5062038;28;20155;-69
2022/01/11 03:53:18;;;;;;;35.53;16.75;;;;;;;;;;5060638;28;20063;-70
2022/01/11 03:58:23;;;;;;;34.63;16.83;;;;;;;;;;5059823;28;20070;-69
2022/01/11 04:00:50;;;;;;;38.15;18.58;;;;;;;;;;5061825;28;20036;-70
2022/01/11 04:03:15;;;;;;;34.30;16.60;;;;;;;;;;5062699;28;20357;-69
2022/01/11 04:05:43;;;;;;;34.10;17.08;;;;;;;;;;5060131;28;20029;-70
2022/01/11 04:08:08;;;;;;;43.28;16.55;;;;;;;;;;5058279;28;20028;-70
2022/01/11 04:10:34;;;;;;;32.53;16.85;;;;;;;;;;5056779;28;20013;-69
2022/01/11 04:12:59;;;;;;;36.22;17.38;;;;;;;;;;5058992;28;20021;-70
2022/01/11 04:15:24;;;;;;;35.08;16.48;;;;;;;;;;5060018;28;20090;-70
2022/01/11 04:17:50;;;;;;;31.85;15.02;;;;;;;;;;5060413;28;20028;-70
2022/01/11 04:20:18;;;;;;;30.27;14.80;;;;;;;;;;5060992;28;20051;-69
2022/01/11 04:22:43;;;;;;;24.75;14.57;;;;;;;;;;5059719;28;20050;-70
2022/01/11 04:25:09;;;;;;;31.40;14.70;;;;;;;;;;5060632;28;20020;-70
2022/01/11 04:27:34;;;;;;;40.78;16.08;;;;;;;;;;5059562;28;20479;-69
2022/01/11 04:29:59;;;;;;;30.85;15.27;;;;;;;;;;5058337;28;20107;-70
2022/01/11 04:32:25;;;;;;;27.52;14.93;;;;;;;;;;5059154;28;20110;-70
2022/01/11 04:34:50;;;;;;;31.02;15.30;;;;;;;;;;5060755;28;20031;-69
2022/01/11 04:37:15;;;;;;;28.75;15.43;;;;;;;;;;5059942;28;20025;-70
2022/01/11 04:39:41;;;;;;;30.42;15.13;;;;;;;;;;5058242;28;20025;-70
2022/01/11 04:42:06;;;;;;;26.58;14.68;;;;;;;;;;5059203;28;20034;-70
2022/01/11 04:44:31;;;;;;;24.60;14.05;;;;;;;;;;5060249;28;20486;-69
2022/01/11 04:46:57;;;;;;;27.67;15.30;;;;;;;;;;5060279;28;20383;-70
2022/01/11 04:49:22;;;;;;;25.90;13.93;;;;;;;;;;5059862;28;20024;-70
2022/01/11 04:51:47;;;;;;;33.15;14.35;;;;;;;;;;5056227;28;20030;-70
2022/01/11 04:54:13;;;;;;;25.48;14.18;;;;;;;;;;5059216;28;20093;-70
2022/01/11 04:56:38;;;;;;;25.80;13.63;;;;;;;;;;5059334;28;20060;-70
2022/01/11 04:59:04;;;;;;;27.33;14.02;;;;;;;;;;5058766;28;20020;-70
2022/01/11 05:01:30;;;;;;;30.60;14.85;;;;;;;;;;5059704;28;20129;-70
2022/01/11 05:03:55;;;;;;;28.27;15.48;;;;;;;;;;5059373;28;20118;-70
2022/01/11 05:06:20;;;;;;;29.58;14.85;;;;;;;;;;5057235;28;20070;-70
2022/01/11 05:08:46;;;;;;;28.35;14.38;;;;;;;;;;5057512;28;20483;-70
2022/01/11 05:11:11;;;;;;;29.00;14.55;;;;;;;;;;5058741;28;20075;-69
2022/01/11 05:13:37;;;;;;;29.52;15.02;;;;;;;;;;5041775;28;20040;-70
2022/01/11 05:16:02;;;;;;;28.85;14.32;;;;;;;;;;5057551;28;20085;-70
2022/01/11 05:18:29;;;;;;;31.42;15.07;;;;;;;;;;5057797;28;20065;-70
2022/01/11 05:20:54;;;;;;;25.83;13.93;;;;;;;;;;5058383;28;20021;-70
2022/01/11 05:23:20;;;;;;;29.27;14.52;;;;;;;;;;5059447;28;20028;-70
2022/01/11 05:25:45;;;;;;;28.35;14.52;;;;;;;;;;5058279;28;20036;-69
2022/01/11 05:28:11;;;;;;;28.15;14.73;;;;;;;;;;5058549;28;20021;-70
2022/01/11 05:30:36;;;;;;;25.05;13.95;;;;;;;;;;5060978;28;20059;-69
2022/01/11 05:33:01;;;;;;;29.90;15.63;;;;;;;;;;5059211;28;20090;-70
2022/01/11 05:35:27;;;;;;;27.90;14.00;;;;;;;;;;5060654;28;20025;-70
2022/01/11 05:37:52;;;;;;;23.30;12.35;;;;;;;;;;5061361;28;20031;-70
2022/01/11 05:40:18;;;;;;;23.65;12.30;;;;;;;;;;5041351;28;20449;-70
2022/01/11 05:42:43;;;;;;;17.90;10.85;;;;;;;;;;5052811;28;20463;-70
2022/01/11 05:45:09;;;;;;;22.70;12.68;;;;;;;;;;5056969;28;20075;-70
2022/01/11 05:47:35;;;;;;;25.63;13.65;;;;;;;;;;5061098;28;20053;-69
2022/01/11 05:50:01;;;;;;;25.88;13.27;;;;;;;;;;5056824;28;20017;-70
2022/01/11 05:52:27;;;;;;;28.40;13.82;;;;;;;;;;5057035;28;20029;-69
2022/01/11 05:54:52;;;;;;;27.42;14.70;;;;;;;;;;5060307;28;20039;-70
2022/01/11 05:57:17;;;;;;;34.65;15.43;;;;;;;;;;5060136;28;20021;-70
2022/01/11 05:59:42;;;;;;;29.08;15.30;;;;;;;;;;5062472;28;20028;-70
2022/01/11 06:02:08;;;;;;;27.55;14.55;;;;;;;;;;5071145;28;20376;-70
2022/01/11 06:04:33;;;;;;;30.80;14.20;;;;;;;;;;5061964;28;20533;-70
2022/01/11 06:06:58;;;;;;;26.58;14.48;;;;;;;;;;5063142;28;20024;-70
2022/01/11 06:09:26;;;;;;;29.30;13.75;;;;;;;;;;5061155;28;20135;-70
2022/01/11 06:11:53;;;;;;;29.23;14.20;;;;;;;;;;5061707;28;20029;-70
2022/01/11 06:14:18;;;;;;;28.80;14.48;;;;;;;;;;5062575;28;20422;-70
2022/01/11 06:16:43;;;;;;;30.25;13.63;;;;;;;;;;5059306;28;20025;-69
2022/01/11 06:19:09;;;;;;;29.50;14.02;;;;;;;;;;5061915;28;20101;-69
2022/01/11 06:21:34;;;;;;;25.02;13.48;;;;;;;;;;5062019;28;20035;-70
2022/01/11 06:23:59;;;;;;;27.98;14.52;;;;;;;;;;5062998;28;20024;-70
2022/01/11 06:26:25;;;;;;;30.50;14.27;;;;;;;;;;5059929;28;20036;-70
2022/01/11 06:28:50;;;;;;;28.15;13.77;;;;;;;;;;5061611;28;20569;-69
2022/01/11 06:31:15;;;;;;;31.05;14.57;;;;;;;;;;5062158;28;20483;-70
2022/01/11 06:33:41;;;;;;;27.55;14.77;;;;;;;;;;5068182;28;20032;-70
2022/01/11 06:36:11;;;;;;;31.02;14.48;;;;;;;;;;5066972;28;20031;-70
2022/01/11 06:38:38;;;;;;;30.17;14.52;;;;;;;;;;5066559;28;20407;-70
2022/01/11 06:41:03;;;;;;;29.55;15.02;;;;;;;;;;5065810;28;20062;-70
2022/01/11 06:43:28;;;;;;;30.15;15.18;;;;;;;;;;5069760;28;20024;-70
2022/01/11 06:45:53;;;;;;;28.10;14.23;;;;;;;;;;5072770;28;20111;-70
2022/01/11 06:48:19;;;;;;;28.98;14.43;;;;;;;;;;5065313;28;20103;-70
2022/01/11 06:50:44;;;;;;;34.92;15.20;;;;;;;;;;5070560;28;20059;-70
2022/01/11 06:53:10;;;;;;;26.50;13.73;;;;;;;;;;5055665;28;22410;-71
2022/01/11 06:55:35;;;;;;;33.28;14.73;;;;;;;;;;5052494;28;20079;-71
2022/01/11 06:58:00;;;;;;;27.83;14.50;;;;;;;;;;5058458;28;20039;-71
2022/01/11 07:00:26;;;;;;;27.52;14.13;;;;;;;;;;5052458;28;20115;-71
2022/01/11 07:02:51;;;;;;;30.20;14.85;;;;;;;;;;5050148;28;20054;-71
2022/01/11 07:05:17;;;;;;;32.13;14.73;;;;;;;;;;5053755;28;20063;-71
2022/01/11 07:07:42;;;;;;;30.13;15.40;;;;;;;;;;5053970;28;20020;-71
2022/01/11 07:10:08;;;;;;;27.55;15.18;;;;;;;;;;5049069;28;20505;-71
2022/01/11 07:12:33;;;;;;;30.17;15.07;;;;;;;;;;5051093;28;20066;-71
2022/01/11 07:14:58;;;;;;;31.65;15.65;;;;;;;;;;5047374;28;20029;-71
2022/01/11 07:17:25;;;;;;;32.67;16.50;;;;;;;;;;5053033;28;20033;-71
2022/01/11 07:19:50;;;;;;;31.80;15.38;;;;;;;;;;5047970;28;20182;-71
2022/01/11 07:22:15;;;;;;;28.38;15.52;;;;;;;;;;5047845;28;20514;-71
2022/01/11 07:24:41;;;;;;;36.38;14.63;;;;;;;;;;5049119;28;20060;-70
2022/01/11 07:27:06;;;;;;;26.13;13.82;;;;;;;;;;5051239;28;20178;-71
2022/01/11 07:29:31;;;;;;;21.50;11.68;;;;;;;;;;5053367;28;20028;-71
2022/01/11 07:31:56;;;;;;;20.00;12.55;;;;;;;;;;5050061;28;20091;-71
2022/01/11 07:34:22;;;;;;;24.10;13.05;;;;;;;;;;5049495;28;20040;-71
2022/01/11 07:36:47;;;;;;;21.45;12.95;;;;;;;;;;5046989;28;20105;-71
2022/01/11 07:39:12;;;;;;;23.42;13.60;;;;;;;;;;5047449;28;20441;-71
2022/01/11 07:41:38;;;;;;;24.20;13.60;;;;;;;;;;5051986;28;20452;-71
2022/01/11 07:44:04;;;;;;;24.65;14.23;;;;;;;;;;5051870;28;20498;-71
2022/01/11 07:46:30;;;;;;;25.75;12.85;;;;;;;;;;5049586;28;20028;-71
2022/01/11 07:48:57;;;;;;;20.48;11.27;;;;;;;;;;5049842;28;20035;-71
2022/01/11 07:51:22;;;;;;;19.60;11.52;;;;;;;;;;5051684;28;20509;-71
2022/01/11 07:53:48;;;;;;;20.67;11.60;;;;;;;;;;5050393;28;20029;-71
2022/01/11 07:56:13;;;;;;;21.20;12.00;;;;;;;;;;5048929;28;20135;-71
2022/01/11 07:58:39;;;;;;;22.80;12.30;;;;;;;;;;5046817;28;20511;-71
2022/01/11 08:01:04;;;;;;;20.15;11.90;;;;;;;;;;5046913;28;20478;-71
2022/01/11 08:03:29;;;;;;;21.63;10.90;;;;;;;;;;5047920;28;21124;-71
2022/01/11 08:05:55;;;;;;;16.42;9.82;;;;;;;;;;5046819;28;20466;-71
2022/01/11 08:08:20;;;;;;;21.33;11.43;;;;;;;;;;5047570;28;20823;-71
2022/01/11 08:10:45;;;;;;;18.38;9.95;;;;;;;;;;5048423;28;20372;-71
2022/01/11 08:13:11;;;;;;;22.90;11.45;;;;;;;;;;5049723;28;20791;-71
2022/01/11 08:15:37;;;;;;;22.13;11.75;;;;;;;;;;5047246;28;20597;-71
2022/01/11 08:18:05;;;;;;;19.35;11.10;;;;;;;;;;5047620;28;20043;-71
2022/01/11 08:20:31;;;;;;;17.73;10.88;;;;;;;;;;5050855;28;20078;-71
2022/01/11 08:22:56;;;;;;;18.00;10.77;;;;;;;;;;5052420;28;20061;-71
2022/01/11 08:25:22;;;;;;;18.17;10.93;;;;;;;;;;5052980;28;20028;-71
2022/01/11 08:27:48;;;;;;;21.02;11.95;;;;;;;;;;5048527;28;20024;-71
2022/01/11 08:30:13;;;;;;;23.70;12.02;;;;;;;;;;5052639;28;20058;-71
2022/01/11 08:32:39;;;;;;;20.05;10.85;;;;;;;;;;5046931;28;20029;-70
2022/01/11 08:35:06;;;;;;;20.13;11.77;;;;;;;;;;5048720;28;20216;-70
2022/01/11 08:37:31;;;;;;;19.65;11.52;;;;;;;;;;5047964;28;20047;-71
2022/01/11 08:39:57;;;;;;;21.33;11.00;;;;;;;;;;5049118;28;20033;-71
2022/01/11 08:42:22;;;;;;;24.17;10.70;;;;;;;;;;5050327;28;20338;-71
2022/01/11 08:44:47;;;;;;;20.83;11.25;;;;;;;;;;5048037;28;20051;-70
2022/01/11 08:47:14;;;;;;;20.13;10.40;;;;;;;;;;5051494;28;20038;-71
2022/01/11 08:49:39;;;;;;;19.50;11.88;;;;;;;;;;5051034;28;20040;-70
2022/01/11 08:52:05;;;;;;;11.75;8.77;;;;;;;;;;5045575;28;20212;-70
2022/01/11 08:54:30;;;;;;;15.45;9.23;;;;;;;;;;5047951;28;20472;-71
2022/01/11 08:56:55;;;;;;;19.23;10.90;;;;;;;;;;5048885;28;20113;-70
2022/01/11 08:59:21;;;;;;;18.40;11.15;;;;;;;;;;5044074;28;20115;-71
2022/01/11 09:01:47;;;;;;;17.02;10.13;;;;;;;;;;5042667;28;20771;-71
2022/01/11 09:04:13;;;;;;;19.33;10.95;;;;;;;;;;5044107;28;20033;-71
2022/01/11 09:06:38;;;;;;;16.48;10.52;;;;;;;;;;5049854;28;20067;-71
2022/01/11 09:09:03;;;;;;;16.67;10.18;;;;;;;;;;5049475;28;20067;-71
2022/01/11 09:11:29;;;;;;;18.48;11.13;;;;;;;;;;5051134;28;20162;-71
2022/01/11 09:13:54;;;;;;;16.83;10.50;;;;;;;;;;5053036;28;20142;-71
2022/01/11 09:16:22;;;;;;;17.63;10.30;;;;;;;;;;5048215;28;20071;-71
2022/01/11 09:18:48;;;;;;;14.88;9.07;;;;;;;;;;5047989;28;20028;-71
2022/01/11 09:21:14;;;;;;;14.65;9.43;;;;;;;;;;5050333;28;20025;-71
2022/01/11 09:23:39;;;;;;;14.38;8.40;;;;;;;;;;5030037;28;20039;-71
2022/01/11 09:26:05;;;;;;;13.93;8.48;;;;;;;;;;5051799;28;20032;-71
2022/01/11 09:28:30;;;;;;;13.05;8.73;;;;;;;;;;5051575;28;20068;-71
2022/01/11 09:30:55;;;;;;;15.15;9.45;;;;;;;;;;5050352;28;20036;-71
2022/01/11 09:33:21;;;;;;;12.15;7.93;;;;;;;;;;5051636;28;20588;-71
2022/01/11 09:35:46;;;;;;;15.38;7.80;;;;;;;;;;5050874;28;20028;-71
2022/01/11 09:38:11;;;;;;;13.13;8.55;;;;;;;;;;5046320;28;20062;-71
2022/01/11 09:40:37;;;;;;;11.55;7.78;;;;;;;;;;5052450;28;20056;-70
2022/01/11 09:43:02;;;;;;;13.02;8.88;;;;;;;;;;5038217;28;20177;-69
2022/01/11 09:45:28;;;;;;;11.65;8.27;;;;;;;;;;5046371;28;20046;-69
2022/01/11 09:47:53;;;;;;;13.70;8.50;;;;;;;;;;5043170;28;20037;-69
2022/01/11 09:50:18;;;;;;;11.98;7.78;;;;;;;;;;5045153;28;20129;-69
2022/01/11 09:52:44;;;;;;;14.48;8.07;;;;;;;;;;5046628;28;20071;-69
2022/01/11 09:55:10;;;;;;;14.13;8.10;;;;;;;;;;5046838;28;20036;-69
2022/01/11 09:57:36;;;;;;;12.02;7.05;;;;;;;;;;5045739;28;21181;-69
2022/01/11 10:00:01;;;;;;;13.75;7.93;;;;;;;;;;5044130;28;20037;-70
2022/01/11 10:02:26;;;;;;;11.88;7.95;;;;;;;;;;5046982;28;20296;-70
2022/01/11 10:05:01;;;;;;;13.25;7.43;;;;;;;;;;5050511;28;20231;-69
2022/01/11 10:07:30;;;;;;;;;;;;;;;;;;5047856;28;20208;-70
2022/01/11 10:09:55;;;;;;;15.88;8.43;;;;;;;;;;5048606;28;19913;-69
2022/01/11 10:12:22;;;;;;;13.65;8.13;;;;;;;;;;5045396;28;20048;-69
2022/01/11 10:14:49;;;;;;;9.55;6.97;;;;;;;;;;5043800;28;20099;-70
2022/01/11 10:17:16;;;;;;;11.50;6.95;;;;;;;;;;5048724;28;21753;-69
2022/01/11 10:19:46;;;;;;;9.05;6.32;;;;;;;;;;5049859;28;20048;-69
2022/01/11 10:22:14;;;;;;;11.68;7.55;;;;;;;;;;5045733;28;20047;-69
2022/01/11 10:24:50;;;;;;;13.45;8.43;;;;;;;;;;5045244;28;20482;-69
2022/01/11 10:27:16;;;;;;;16.08;8.77;;;;;;;;;;5049575;28;20499;-69
2022/01/11 10:29:44;;;;;;;12.48;6.82;;;;;;;;;;5052307;28;20039;-69
2022/01/11 10:32:11;;;;;;;10.38;6.82;;;;;;;;;;5049119;28;20089;-69
2022/01/11 10:34:37;;;;;;;11.30;7.28;;;;;;;;;;5045794;28;20021;-69
2022/01/11 10:37:03;;;;;;;10.57;7.43;;;;;;;;;;5047261;28;20536;-69
2022/01/11 10:39:40;;;;;;;10.50;7.05;;;;;;;;;;5049650;28;20060;-70
2022/01/11 10:42:07;;;;;;;17.13;8.77;;;;;;;;;;5049232;28;20039;-70
2022/01/11 10:44:59;;;;;;;12.77;7.55;;;;;;;;;;5050277;28;20025;-69
2022/01/11 10:47:33;;;;;;;12.88;7.28;;;;;;;;;;5049387;28;20115;-70
2022/01/11 10:50:01;;;;;;;12.07;6.63;;;;;;;;;;5053159;28;20119;-69
2022/01/11 10:52:28;;;;;;;9.13;6.55;;;;;;;;;;5048085;28;20040;-69
2022/01/11 10:54:54;;;;;;;9.13;6.40;;;;;;;;;;5049059;28;20402;-69
2022/01/11 10:57:22;;;;;;;10.68;6.60;;;;;;;;;;5050586;28;20024;-69
2022/01/11 11:00:05;;;;;;;8.55;6.53;;;;;;;;;;5050689;28;20040;-69
2022/01/11 11:02:30;;;;;;;8.57;6.35;;;;;;;;;;5052324;28;20830;-69
2022/01/11 11:04:58;;;;;;;9.40;6.60;;;;;;;;;;5052356;28;20025;-69
2022/01/11 11:07:24;;;;;;;12.05;6.70;;;;;;;;;;5050526;28;20036;-69
2022/01/11 11:09:50;;;;;;;8.50;6.22;;;;;;;;;;5035397;28;20028;-69
2022/01/11 11:12:15;;;;;;;8.63;6.32;;;;;;;;;;5050352;28;20166;-69
2022/01/11 11:14:55;;;;;;;13.32;7.40;;;;;;;;;;5051575;28;20536;-69
2022/01/11 11:17:51;;;;;;;9.18;6.78;;;;;;;;;;5051972;28;20047;-69
2022/01/11 11:20:16;;;;;;;9.43;6.53;;;;;;;;;;5033656;28;20045;-69
2022/01/11 11:22:41;;;;;;;10.95;6.70;;;;;;;;;;5050741;28;20441;-69
2022/01/11 11:25:07;;;;;;;7.63;5.82;;;;;;;;;;5051474;28;20258;-69
2022/01/11 11:27:32;;;;;;;12.65;6.90;;;;;;;;;;5049652;28;20479;-69
2022/01/11 11:29:59;;;;;;;10.15;6.93;;;;;;;;;;5055709;28;20036;-69
2022/01/11 11:32:25;;;;;;;9.65;6.22;;;;;;;;;;5052508;28;20045;-69
2022/01/11 11:34:50;;;;;;;10.25;6.13;;;;;;;;;;5047753;28;20522;-69
2022/01/11 11:37:25;;;;;;;10.88;7.07;;;;;;;;;;5046695;28;20032;-69
2022/01/11 11:39:58;;;;;;;11.00;7.05;;;;;;;;;;5054032;28;20035;-69
2022/01/11 11:42:23;;;;;;;12.55;7.25;;;;;;;;;;5051595;28;20055;-69
2022/01/11 11:44:49;;;;;;;10.07;7.38;;;;;;;;;;5034570;28;20506;-69
2022/01/11 11:47:14;;;;;;;10.95;6.53;;;;;;;;;;5048987;28;20028;-69
2022/01/11 11:49:51;;;;;;;11.05;6.75;;;;;;;;;;5047342;28;20063;-69
2022/01/11 11:52:25;;;;;;;10.77;6.85;;;;;;;;;;5045917;28;20508;-69
2022/01/11 11:54:54;;;;;;;9.52;6.68;;;;;;;;;;5046722;28;20033;-70
2022/01/11 11:57:20;;;;;;;10.05;7.13;;;;;;;;;;5045319;28;20040;-69
2022/01/11 11:59:56;;;;;;;9.85;6.32;;;;;;;;;;5043744;28;20433;-69
2022/01/11 12:02:32;;;;;;;9.50;6.40;;;;;;;;;;5044907;28;20040;-69
2022/01/11 12:04:57;;;;;;;12.40;6.88;;;;;;;;;;5050749;28;20428;-69
2022/01/11 12:07:44;;;;;;;10.50;6.80;;;;;;;;;;5054952;28;20032;-69
2022/01/11 12:10:52;;;;;;;9.05;6.88;;;;;;;;;;5049392;28;20028;-69
2022/01/11 12:13:47;;;;;;;14.80;7.82;;;;;;;;;;5046751;28;20607;-69
2022/01/11 12:16:25;;;;;;;12.40;8.88;;;;;;;;;;5044310;28;20247;-69
2022/01/11 12:18:50;;;;;;;11.43;7.97;;;;;;;;;;5054046;28;20142;-69
2022/01/11 12:21:16;;;;;;;15.60;8.75;;;;;;;;;;5049240;28;20047;-69
2022/01/11 12:23:41;;;;;;;14.85;9.18;;;;;;;;;;5053971;28;20734;-69
2022/01/11 12:26:16;;;;;;;19.50;9.52;;;;;;;;;;5050050;28;20029;-69
2022/01/11 12:28:46;;;;;;;18.55;10.38;;;;;;;;;;5052811;28;20043;-69
2022/01/11 12:31:30;;;;;;;14.63;9.10;;;;;;;;;;5031503;28;22036;-69
2022/01/11 12:33:56;;;;;;;13.23;9.30;;;;;;;;;;5066993;28;20032;-69
2022/01/11 12:36:21;;;;;;;14.98;9.50;;;;;;;;;;5048597;28;20048;-69
2022/01/11 12:39:00;;;;;;;16.50;9.52;;;;;;;;;;5045118;28;20497;-69
2022/01/11 12:41:37;;;;;;;13.30;9.13;;;;;;;;;;5050323;28;20459;-69
2022/01/11 12:46:57;;;;;;;15.63;8.57;;;;;;;;;;5049015;28;20031;-69
2022/01/11 12:49:22;;;;;;;17.15;9.20;;;;;;;;;;5046992;28;20097;-69
2022/01/11 12:51:56;;;;;;;15.48;9.93;;;;;;;;;;5051596;28;20036;-69
2022/01/11 12:54:22;;;;;;;14.40;8.77;;;;;;;;;;5051814;28;20044;-69
2022/01/11 12:56:51;;;;;;;18.00;9.50;;;;;;;;;;5052737;28;20025;-69
2022/01/11 12:59:17;;;;;;;16.60;10.43;;;;;;;;;;5049155;28;20862;-69
2022/01/11 13:01:42;;;;;;;19.33;10.73;;;;;;;;;;5046541;28;20082;-69
2022/01/11 13:04:07;;;;;;;14.60;9.70;;;;;;;;;;5028338;28;20504;-69
2022/01/11 13:06:34;;;;;;;15.15;9.80;;;;;;;;;;5029129;28;20470;-69
2022/01/11 13:09:03;;;;;;;16.58;10.13;;;;;;;;;;5045274;28;20522;-69
2022/01/11 13:11:29;;;;;;;19.50;10.00;;;;;;;;;;5044390;28;20024;-69
2022/01/11 13:16:42;;;;;;;16.42;9.90;;;;;;;;;;5047108;28;20491;-69
2022/01/11 13:19:09;;;;;;;18.60;11.55;;;;;;;;;;5047722;28;20032;-69
2022/01/11 13:21:34;;;;;;;16.77;10.30;;;;;;;;;;5047827;28;20066;-69
2022/01/11 13:24:11;;;;;;;18.55;10.60;;;;;;;;;;5049238;28;20122;-69
2022/01/11 13:26:37;;;;;;;17.98;10.30;;;;;;;;;;5051649;28;20071;-69
2022/01/11 13:29:02;;;;;;;18.52;9.90;;;;;;;;;;5051197;28;20415;-69
2022/01/11 13:31:29;;;;;;;16.60;8.75;;;;;;;;;;5051885;28;20032;-69
2022/01/11 13:33:58;;;;;;;13.55;7.72;;;;;;;;;;5051904;28;20040;-69
2022/01/11 13:36:30;;;;;;;12.07;8.18;;;;;;;;;;5067472;28;20491;-69
2022/01/11 13:38:56;;;;;;;12.55;8.27;;;;;;;;;;5051537;28;20032;-69
2022/01/11 13:41:39;;;;;;;16.10;8.95;;;;;;;;;;5048456;28;20028;-69
2022/01/11 13:44:12;;;;;;;13.57;8.07;;;;;;;;;;5050412;28;20040;-69
2022/01/11 13:46:43;;;;;;;13.15;8.57;;;;;;;;;;5048337;28;20059;-69
2022/01/11 13:49:24;;;;;;;12.93;7.65;;;;;;;;;;5049904;28;20036;-69
2022/01/11 13:51:55;;;;;;;12.85;7.97;;;;;;;;;;5051331;28;20829;-69
2022/01/11 13:54:21;;;;;;;10.80;7.30;;;;;;;;;;5052884;28;20032;-69
2022/01/11 13:56:48;;;;;;;12.48;8.30;;;;;;;;;;5051448;28;21279;-69
2022/01/11 13:59:15;;;;;;;16.55;8.90;;;;;;;;;;5030649;28;20616;-69
2022/01/11 14:01:42;;;;;;;13.30;8.98;;;;;;;;;;5047646;28;20124;-69
2022/01/11 14:04:15;;;;;;;13.93;8.95;;;;;;;;;;5032241;28;20526;-70
2022/01/11 14:06:50;;;;;;;14.65;8.90;;;;;;;;;;5045877;28;20063;-69
2022/01/11 14:09:18;;;;;;;12.98;8.63;;;;;;;;;;5048407;28;20494;-69
2022/01/11 14:12:05;;;;;;;11.82;8.07;;;;;;;;;;5048817;28;20029;-69
2022/01/11 14:14:30;;;;;;;12.63;8.38;;;;;;;;;;5048656;28;20504;-69
2022/01/11 14:16:56;;;;;;;15.07;9.40;;;;;;;;;;5046172;28;20035;-69
2022/01/11 14:19:21;;;;;;;13.65;9.38;;;;;;;;;;5031816;28;20029;-69
2022/01/11 14:21:56;;;;;;;15.60;9.15;;;;;;;;;;5050909;28;20064;-69
2022/01/11 14:24:22;;;;;;;13.10;8.25;;;;;;;;;;5050909;28;20051;-69
2022/01/11 14:26:47;;;;;;;13.95;8.80;;;;;;;;;;5053371;28;20040;-69
2022/01/11 14:29:19;;;;;;;12.95;7.60;;;;;;;;;;5053135;28;20394;-69
2022/01/11 14:32:08;;;;;;;14.75;8.88;;;;;;;;;;5051305;28;20048;-69
2022/01/11 14:34:34;;;;;;;12.05;7.78;;;;;;;;;;5048337;28;20119;-69